createdAt,value
2023-05-12T00:02:04.939Z,13.18
2023-05-12T00:04:32.520Z,13.21
2023-05-12T00:07:00.050Z,13.20
2023-05-12T00:09:27.540Z,13.19
2023-05-12T00:11:55.143Z,13.13
2023-05-12T00:14:22.662Z,13.15
2023-05-12T00:16:52.035Z,13.16
2023-05-12T00:19:21.418Z,13.16
2023-05-12T00:21:48.921Z,13.15
2023-05-12T00:24:16.438Z,13.07
2023-05-12T00:26:44.038Z,13.02
2023-05-12T00:29:11.749Z,13.02
2023-05-12T00:31:39.243Z,12.92
2023-05-12T00:34:06.886Z,12.94
2023-05-12T00:36:36.051Z,12.95
2023-05-12T00:39:04.552Z,12.90
2023-05-12T00:41:32.279Z,12.84
2023-05-12T00:43:59.880Z,12.84
2023-05-12T00:46:27.799Z,12.76
2023-05-12T00:48:55.360Z,12.73
2023-05-12T00:51:23.056Z,12.67
2023-05-12T00:53:51.929Z,12.64
2023-05-12T00:56:19.796Z,12.63
2023-05-12T00:58:47.708Z,12.58
2023-05-12T01:01:16.390Z,12.49
2023-05-12T01:03:45.625Z,12.39
2023-05-12T01:06:14.789Z,12.37
2023-05-12T01:08:42.406Z,12.37
2023-05-12T01:11:11.965Z,12.35
2023-05-12T01:13:41.145Z,12.31
2023-05-12T01:16:10.760Z,12.26
2023-05-12T01:18:39.180Z,12.17
2023-05-12T01:21:07.650Z,12.16
2023-05-12T01:23:37.593Z,12.10
2023-05-12T01:26:07.881Z,12.07
2023-05-12T01:28:37.340Z,11.99
2023-05-12T01:31:06.323Z,12.07
2023-05-12T01:33:35.942Z,12.09
2023-05-12T01:36:03.463Z,12.08
2023-05-12T01:38:31.121Z,12.08
2023-05-12T01:40:59.274Z,12.05
2023-05-12T01:43:28.123Z,11.80
2023-05-12T01:45:55.603Z,11.63
2023-05-12T01:48:23.374Z,11.67
2023-05-12T01:50:51.096Z,11.56
2023-05-12T01:53:21.556Z,11.55
2023-05-12T01:55:49.024Z,11.40
2023-05-12T01:58:17.125Z,11.50
2023-05-12T02:00:46.310Z,11.49
2023-05-12T02:03:18.073Z,11.48
2023-05-12T02:05:45.742Z,11.53
2023-05-12T02:08:13.227Z,11.55
2023-05-12T02:10:40.833Z,11.51
2023-05-12T02:13:08.631Z,11.46
2023-05-12T02:15:36.192Z,11.41
2023-05-12T02:18:05.475Z,11.30
2023-05-12T02:20:33.107Z,11.13
2023-05-12T02:23:02.107Z,11.09
2023-05-12T02:25:31.266Z,10.98
2023-05-12T02:27:58.766Z,11.15
2023-05-12T02:30:26.332Z,10.93
2023-05-12T02:32:53.824Z,10.88
2023-05-12T02:35:22.830Z,11.00
2023-05-12T02:37:50.346Z,10.99
2023-05-12T02:40:18.103Z,10.99
2023-05-12T02:42:45.777Z,11.17
2023-05-12T02:45:13.838Z,11.20
2023-05-12T02:47:41.873Z,11.21
2023-05-12T02:50:10.791Z,11.00
2023-05-12T02:52:39.679Z,10.88
2023-05-12T02:55:08.078Z,10.83
2023-05-12T02:57:35.560Z,10.78
2023-05-12T03:00:05.773Z,10.89
2023-05-12T03:02:36.249Z,10.94
2023-05-12T03:05:04.124Z,10.86
2023-05-12T03:07:31.843Z,10.87
2023-05-12T03:10:01.614Z,10.81
2023-05-12T03:12:29.548Z,10.66
2023-05-12T03:14:58.923Z,10.61
2023-05-12T03:17:27.248Z,10.57
2023-05-12T03:19:54.771Z,10.51
2023-05-12T03:22:22.473Z,10.52
2023-05-12T03:24:49.961Z,10.60
2023-05-12T03:27:18.840Z,10.68
2023-05-12T03:29:46.659Z,10.83
2023-05-12T03:32:14.221Z,10.89
2023-05-12T03:34:42.095Z,10.96
2023-05-12T03:37:09.706Z,10.68
2023-05-12T03:39:37.214Z,10.72
2023-05-12T03:42:05.169Z,10.68
2023-05-12T03:44:34.003Z,10.58
2023-05-12T03:47:01.704Z,10.65
2023-05-12T03:49:29.338Z,10.67
2023-05-12T03:51:56.887Z,10.72
2023-05-12T03:54:25.734Z,10.62
2023-05-12T03:56:53.290Z,10.59
2023-05-12T03:59:21.832Z,10.63
2023-05-12T04:01:50.897Z,10.69
2023-05-12T04:04:19.098Z,10.76
2023-05-12T04:06:46.597Z,10.80
2023-05-12T04:09:14.109Z,10.82
2023-05-12T04:11:41.601Z,10.57
2023-05-12T04:14:09.144Z,10.52
2023-05-12T04:16:37.761Z,10.53
2023-05-12T04:19:06.911Z,10.68
2023-05-12T04:21:36.291Z,10.80
2023-05-12T04:24:04.333Z,10.77
2023-05-12T04:26:37.533Z,10.93
2023-05-12T04:29:05.103Z,10.77
2023-05-12T04:31:32.688Z,10.77
2023-05-12T04:34:01.171Z,10.84
2023-05-12T04:36:32.073Z,10.89
2023-05-12T04:39:00.109Z,10.95
2023-05-12T04:41:27.790Z,10.94
2023-05-12T04:46:26.919Z,10.95
2023-05-12T04:48:54.707Z,10.93
2023-05-12T04:51:22.226Z,11.04
2023-05-12T04:53:51.128Z,10.95
2023-05-12T04:56:20.167Z,10.85
2023-05-12T04:58:47.848Z,10.97
2023-05-12T05:01:18.193Z,10.93
2023-05-12T05:03:45.867Z,10.90
2023-05-12T05:06:14.403Z,10.88
2023-05-12T05:08:43.043Z,10.92
2023-05-12T05:11:14.968Z,10.99
2023-05-12T05:13:43.327Z,11.13
2023-05-12T05:16:10.901Z,11.16
2023-05-12T05:18:41.724Z,11.20
2023-05-12T05:21:09.669Z,11.20
2023-05-12T05:23:37.317Z,11.18
2023-05-12T05:26:05.312Z,11.18
2023-05-12T05:28:34.224Z,11.22
2023-05-12T05:31:01.908Z,11.25
2023-05-12T05:33:29.722Z,11.34
2023-05-12T05:35:57.672Z,11.45
2023-05-12T05:38:25.223Z,11.48
2023-05-12T05:40:54.652Z,11.55
2023-05-12T05:43:24.197Z,11.59
2023-05-12T05:45:53.618Z,11.60
2023-05-12T05:48:22.371Z,11.63
2023-05-12T05:50:51.407Z,11.68
2023-05-12T05:53:19.554Z,11.80
2023-05-12T05:55:48.516Z,11.90
2023-05-12T05:58:16.361Z,11.88
2023-05-12T06:00:44.516Z,12.00
2023-05-12T06:03:13.558Z,12.06
2023-05-12T06:05:42.338Z,12.08
2023-05-12T06:08:13.018Z,12.25
2023-05-12T06:10:40.851Z,12.22
2023-05-12T06:13:08.468Z,12.16
2023-05-12T06:15:36.030Z,12.15
2023-05-12T06:18:03.629Z,12.31
2023-05-12T06:20:32.910Z,12.36
2023-05-12T06:23:00.474Z,12.42
2023-05-12T06:25:27.954Z,12.47
2023-05-12T06:27:55.571Z,12.57
2023-05-12T06:30:23.343Z,12.73
2023-05-12T06:32:50.884Z,12.77
2023-05-12T06:35:18.854Z,12.87
2023-05-12T06:37:49.735Z,13.03
2023-05-12T06:40:17.808Z,13.11
2023-05-12T06:42:45.369Z,13.13
2023-05-12T06:45:19.661Z,13.38
2023-05-12T06:47:47.501Z,13.45
2023-05-12T06:50:15.535Z,13.46
2023-05-12T06:52:43.028Z,13.47
2023-05-12T06:55:11.989Z,13.44
2023-05-12T06:57:39.581Z,13.48
2023-05-12T07:00:08.488Z,13.63
2023-05-12T07:02:36.032Z,13.70
2023-05-12T07:05:03.541Z,13.78
2023-05-12T07:07:31.123Z,13.91
2023-05-12T07:09:58.606Z,14.07
2023-05-12T07:12:27.525Z,14.11
2023-05-12T07:14:54.988Z,14.22
2023-05-12T07:17:22.665Z,14.40
2023-05-12T07:19:50.328Z,14.58
2023-05-12T07:22:17.886Z,14.75
2023-05-12T07:24:45.513Z,14.98
2023-05-12T07:27:13.079Z,15.18
2023-05-12T07:29:41.974Z,15.33
2023-05-12T07:32:09.486Z,15.40
2023-05-12T07:34:37.567Z,15.36
2023-05-12T07:37:06.694Z,15.46
2023-05-12T07:39:34.297Z,15.52
2023-05-12T07:42:01.768Z,15.47
2023-05-12T07:44:29.333Z,15.42
2023-05-12T07:46:58.189Z,15.60
2023-05-12T07:49:26.066Z,15.70
2023-05-12T07:51:53.577Z,15.68
2023-05-12T07:54:21.128Z,16.04
2023-05-12T07:56:48.714Z,16.35
2023-05-12T07:59:16.311Z,16.49
2023-05-12T08:01:43.959Z,16.50
2023-05-12T08:04:12.878Z,16.52
2023-05-12T08:06:40.796Z,16.87
2023-05-12T08:09:08.309Z,17.04
2023-05-12T08:11:35.872Z,16.82
2023-05-12T08:14:03.373Z,17.13
2023-05-12T08:16:30.951Z,16.75
2023-05-12T08:18:58.723Z,16.90
2023-05-12T08:21:28.667Z,16.82
2023-05-12T08:23:56.269Z,16.99
2023-05-12T08:26:24.851Z,16.50
2023-05-12T08:28:52.586Z,16.62
2023-05-12T08:31:20.850Z,16.75
2023-05-12T08:33:54.028Z,17.20
2023-05-12T08:36:28.480Z,17.61
2023-05-12T08:38:56.584Z,17.89
2023-05-12T08:41:29.813Z,18.03
2023-05-12T08:43:57.651Z,17.87
2023-05-12T08:46:26.768Z,17.84
2023-05-12T08:48:54.940Z,17.91
2023-05-12T08:51:23.393Z,17.98
2023-05-12T08:53:54.300Z,17.76
2023-05-12T08:58:56.425Z,17.86
2023-05-12T09:01:24.344Z,17.89
2023-05-12T09:03:52.795Z,17.91
2023-05-12T09:06:20.468Z,17.89
2023-05-12T09:08:47.997Z,17.81
2023-05-12T09:11:17.437Z,17.76
2023-05-12T09:13:51.522Z,17.70
2023-05-12T09:16:21.657Z,17.63
2023-05-12T09:18:51.674Z,17.60
2023-05-12T09:21:19.607Z,17.56
2023-05-12T09:23:56.884Z,17.50
2023-05-12T09:26:26.868Z,17.47
2023-05-12T09:28:55.896Z,17.46
2023-05-12T09:31:24.702Z,17.48
2023-05-12T09:33:52.830Z,17.50
2023-05-12T09:36:21.262Z,17.51
2023-05-12T09:38:59.683Z,17.52
2023-05-12T09:41:28.491Z,17.52
2023-05-12T09:43:56.465Z,17.52
2023-05-12T09:46:25.651Z,17.51
2023-05-12T09:48:56.471Z,17.50
2023-05-12T09:51:24.862Z,17.51
2023-05-12T09:53:52.881Z,17.52
2023-05-12T09:56:21.308Z,17.51
2023-05-12T09:58:50.921Z,17.55
2023-05-12T10:01:23.210Z,17.63
2023-05-12T10:03:53.835Z,17.78
2023-05-12T10:06:23.808Z,17.95
2023-05-12T10:08:54.619Z,18.07
2023-05-12T10:11:23.465Z,18.12
2023-05-12T10:13:53.220Z,18.12
2023-05-12T10:16:21.692Z,17.99
2023-05-12T10:18:49.685Z,17.98
2023-05-12T10:21:17.467Z,17.79
2023-05-12T10:23:45.639Z,17.82
2023-05-12T10:26:15.477Z,17.71
2023-05-12T10:28:43.311Z,17.48
2023-05-12T10:31:12.460Z,17.64
2023-05-12T10:33:39.993Z,17.78
2023-05-12T10:36:18.000Z,17.93
2023-05-12T10:38:49.735Z,18.01
2023-05-12T10:41:17.821Z,18.12
2023-05-12T10:43:49.439Z,18.23
2023-05-12T10:46:20.800Z,18.32
2023-05-12T10:48:54.899Z,18.37
2023-05-12T10:51:24.144Z,18.39
2023-05-12T10:53:58.431Z,18.48
2023-05-12T10:56:29.534Z,18.52
2023-05-12T10:59:08.393Z,18.76
2023-05-12T11:01:37.909Z,18.85
2023-05-12T11:04:17.300Z,18.86
2023-05-12T11:06:46.761Z,18.81
2023-05-12T11:09:15.725Z,18.54
2023-05-12T11:11:45.765Z,18.63
2023-05-12T11:14:13.581Z,18.46
2023-05-12T11:16:44.394Z,18.49
2023-05-12T11:19:12.495Z,18.55
2023-05-12T11:21:40.349Z,18.63
2023-05-12T11:24:12.961Z,18.59
2023-05-12T11:26:41.310Z,18.55
2023-05-12T11:29:08.821Z,18.68
2023-05-12T11:31:36.392Z,18.79
2023-05-12T11:34:12.740Z,18.82
2023-05-12T11:36:42.243Z,18.99
2023-05-12T11:39:14.524Z,19.15
2023-05-12T11:41:41.989Z,19.20
2023-05-12T11:44:16.721Z,19.33
2023-05-12T11:46:55.336Z,19.41
2023-05-12T11:49:24.274Z,19.64
2023-05-12T11:51:53.429Z,19.74
2023-05-12T11:54:21.193Z,19.95
2023-05-12T11:56:49.297Z,20.25
2023-05-12T11:59:27.275Z,20.43
2023-05-12T12:01:55.009Z,20.53
2023-05-12T12:04:34.416Z,20.56
2023-05-12T12:07:02.163Z,20.58
2023-05-12T12:09:34.047Z,20.11
2023-05-12T12:12:02.247Z,20.05
2023-05-12T12:14:31.337Z,20.03
2023-05-12T12:16:58.857Z,19.85
2023-05-12T12:19:27.715Z,19.80
2023-05-12T12:21:56.802Z,19.75
2023-05-12T12:24:24.402Z,19.82
2023-05-12T12:26:52.150Z,19.88
2023-05-12T12:29:19.759Z,19.88
2023-05-12T12:31:47.289Z,19.84
2023-05-12T12:34:14.831Z,19.89
2023-05-12T12:36:42.614Z,19.95
2023-05-12T12:39:11.447Z,19.99
2023-05-12T12:41:38.961Z,19.99
2023-05-12T12:44:07.103Z,19.93
2023-05-12T12:46:34.693Z,19.77
2023-05-12T12:49:02.196Z,19.46
2023-05-12T12:51:44.462Z,19.44
2023-05-12T12:54:14.923Z,19.53
2023-05-12T12:56:42.783Z,19.40
2023-05-12T12:59:10.335Z,19.48
2023-05-12T13:01:37.864Z,19.48
2023-05-12T13:04:05.630Z,19.53
2023-05-12T13:06:33.224Z,19.67
2023-05-12T13:09:00.769Z,19.68
2023-05-12T13:11:29.614Z,19.80
2023-05-12T13:13:57.116Z,19.61
2023-05-12T13:16:24.623Z,19.52
2023-05-12T13:18:52.204Z,19.49
2023-05-12T13:21:19.801Z,19.40
2023-05-12T13:23:47.297Z,19.39
2023-05-12T13:26:14.831Z,19.37
2023-05-12T13:28:44.092Z,19.38
2023-05-12T13:31:11.635Z,19.36
2023-05-12T13:33:39.251Z,19.42
2023-05-12T13:36:07.591Z,19.37
2023-05-12T13:38:35.179Z,19.23
2023-05-12T13:41:03.201Z,19.31
2023-05-12T13:43:30.725Z,19.28
2023-05-12T13:45:59.562Z,19.37
2023-05-12T13:48:27.117Z,19.52
2023-05-12T13:50:54.783Z,19.66
2023-05-12T13:53:22.290Z,19.79
2023-05-12T13:55:49.794Z,19.71
2023-05-12T13:58:17.502Z,19.66
2023-05-12T14:00:45.105Z,19.67
2023-05-12T14:03:13.953Z,19.67
2023-05-12T14:05:41.518Z,19.67
2023-05-12T14:08:09.204Z,19.57
2023-05-12T14:10:36.744Z,19.31
2023-05-12T14:13:09.038Z,19.23
2023-05-12T14:15:48.045Z,18.86
2023-05-12T14:18:18.421Z,18.81
2023-05-12T14:20:46.160Z,18.86
2023-05-12T14:23:13.918Z,18.59
2023-05-12T14:25:41.467Z,18.62
2023-05-12T14:28:09.356Z,18.70
2023-05-12T14:30:38.516Z,18.81
2023-05-12T14:33:06.469Z,18.88
2023-05-12T14:35:35.501Z,18.93
2023-05-12T14:38:03.081Z,18.67
2023-05-12T14:40:30.665Z,18.56
2023-05-12T14:42:58.455Z,18.67
2023-05-12T14:45:26.535Z,18.86
2023-05-12T14:47:54.558Z,19.17
2023-05-12T14:50:22.400Z,19.43
2023-05-12T14:52:51.389Z,19.51
2023-05-12T14:55:19.153Z,19.69
2023-05-12T14:57:47.868Z,19.95
2023-05-12T15:00:16.409Z,19.96
2023-05-12T15:02:45.061Z,20.03
2023-05-12T15:05:13.714Z,20.26
2023-05-12T15:07:41.250Z,20.11
2023-05-12T15:10:11.154Z,20.17
2023-05-12T15:12:39.224Z,20.23
2023-05-12T15:15:08.840Z,20.15
2023-05-12T15:17:36.471Z,20.09
2023-05-12T15:20:04.477Z,19.89
2023-05-12T15:22:32.268Z,19.78
2023-05-12T15:25:00.293Z,20.02
2023-05-12T15:27:29.196Z,20.15
2023-05-12T15:29:56.670Z,20.33
2023-05-12T15:32:24.196Z,20.38
2023-05-12T15:34:51.725Z,20.38
2023-05-12T15:37:19.231Z,20.48
2023-05-12T15:39:46.707Z,20.40
2023-05-12T15:42:16.730Z,20.30
2023-05-12T15:44:48.288Z,20.11
2023-05-12T15:47:15.798Z,20.07
2023-05-12T15:49:43.288Z,20.00
2023-05-12T15:52:11.429Z,19.80
2023-05-12T15:54:39.413Z,19.60
2023-05-12T15:57:06.955Z,19.54
2023-05-12T15:59:34.450Z,19.59
2023-05-12T16:02:03.341Z,19.53
2023-05-12T16:04:30.881Z,19.57
2023-05-12T16:06:58.424Z,19.63
2023-05-12T16:09:26.489Z,19.77
2023-05-12T16:11:54.853Z,19.79
2023-05-12T16:14:25.437Z,19.78
2023-05-12T16:16:53.012Z,19.85
2023-05-12T16:19:21.846Z,19.79
2023-05-12T16:21:49.413Z,19.75
2023-05-12T16:24:17.599Z,19.76
2023-05-12T16:26:45.272Z,19.73
2023-05-12T16:29:13.727Z,19.76
2023-05-12T16:31:41.316Z,19.67
2023-05-12T16:34:08.842Z,19.64
2023-05-12T16:36:38.139Z,19.59
2023-05-12T16:39:07.530Z,19.61
2023-05-12T16:41:35.170Z,19.70
2023-05-12T16:44:02.781Z,19.64
2023-05-12T16:46:32.564Z,19.67
2023-05-12T16:49:00.137Z,19.67
2023-05-12T16:51:30.441Z,19.59
2023-05-12T16:53:59.301Z,19.53
2023-05-12T16:56:28.113Z,19.54
2023-05-12T16:58:55.640Z,19.50
2023-05-12T17:01:23.466Z,19.12
2023-05-12T17:03:51.191Z,18.66
2023-05-12T17:06:18.890Z,18.40
2023-05-12T17:08:46.387Z,18.25
2023-05-12T17:11:15.163Z,18.08
2023-05-12T17:13:42.877Z,18.05
2023-05-12T17:16:10.372Z,17.89
2023-05-12T17:21:09.054Z,17.67
2023-05-12T17:23:36.602Z,17.60
2023-05-12T17:26:04.222Z,17.55
2023-05-12T17:28:33.315Z,17.48
2023-05-12T17:31:01.343Z,17.33
2023-05-12T17:33:29.454Z,17.17
2023-05-12T17:36:10.974Z,17.11
2023-05-12T17:38:40.404Z,17.13
2023-05-12T17:41:07.932Z,17.15
2023-05-12T17:43:36.857Z,17.11
2023-05-12T17:46:04.867Z,17.08
2023-05-12T17:48:33.325Z,17.15
2023-05-12T17:51:01.341Z,17.22
2023-05-12T17:53:28.856Z,17.30
2023-05-12T17:55:56.643Z,17.30
2023-05-12T17:58:24.298Z,17.34
2023-05-12T18:00:53.516Z,17.29
2023-05-12T18:03:23.493Z,17.17
2023-05-12T18:05:52.637Z,17.11
2023-05-12T18:08:20.186Z,16.88
2023-05-12T18:10:47.970Z,16.87
2023-05-12T18:13:15.959Z,16.70
2023-05-12T18:15:43.942Z,16.72
2023-05-12T18:18:14.398Z,16.70
2023-05-12T18:20:42.296Z,16.58
2023-05-12T18:23:09.853Z,16.47
2023-05-12T18:25:37.365Z,16.37
2023-05-12T18:28:06.489Z,16.27
2023-05-12T18:30:34.089Z,16.15
2023-05-12T18:33:01.584Z,16.08
2023-05-12T18:35:30.818Z,15.99
2023-05-12T18:37:58.458Z,15.87
2023-05-12T18:40:26.252Z,15.68
2023-05-12T18:42:53.794Z,15.58
2023-05-12T18:45:22.811Z,15.44
2023-05-12T18:47:50.486Z,15.35
2023-05-12T18:50:18.064Z,15.28
2023-05-12T18:52:46.910Z,15.25
2023-05-12T18:55:15.222Z,15.24
2023-05-12T18:57:42.721Z,15.25
2023-05-12T19:00:11.177Z,15.28
2023-05-12T19:02:38.745Z,15.28
2023-05-12T19:05:07.380Z,15.25
2023-05-12T19:07:34.898Z,15.24
2023-05-12T19:10:03.760Z,15.26
2023-05-12T19:12:31.648Z,15.17
2023-05-12T19:14:59.517Z,15.10
2023-05-12T19:17:27.064Z,15.12
2023-05-12T19:19:54.605Z,15.10
2023-05-12T19:22:23.459Z,15.03
2023-05-12T19:24:51.588Z,15.07
2023-05-12T19:27:20.625Z,15.05
2023-05-12T19:29:48.496Z,14.98
2023-05-12T19:32:16.969Z,14.92
2023-05-12T19:34:44.599Z,14.91
2023-05-12T19:37:12.076Z,14.93
2023-05-12T19:39:39.598Z,14.80
2023-05-12T19:42:07.620Z,14.72
2023-05-12T19:44:36.731Z,14.74
2023-05-12T19:47:05.001Z,14.68
2023-05-12T19:49:34.118Z,14.56
2023-05-12T19:52:01.833Z,14.50
2023-05-12T19:54:29.498Z,14.48
2023-05-12T19:56:57.093Z,14.39
2023-05-12T19:59:24.762Z,14.42
2023-05-12T20:01:53.636Z,14.41
2023-05-12T20:04:21.455Z,14.35
2023-05-12T20:06:48.956Z,14.30
2023-05-12T20:09:16.501Z,14.29
2023-05-12T20:11:43.989Z,14.23
2023-05-12T20:14:11.463Z,14.35
2023-05-12T20:16:39.187Z,14.27
2023-05-12T20:19:08.141Z,14.18
2023-05-12T20:21:35.830Z,14.08
2023-05-12T20:24:03.341Z,14.02
2023-05-12T20:26:31.130Z,14.03
2023-05-12T20:28:59.500Z,13.95
2023-05-12T20:31:27.430Z,13.84
2023-05-12T20:33:55.772Z,13.92
2023-05-12T20:36:24.619Z,13.85
2023-05-12T20:38:52.173Z,13.81
2023-05-12T20:41:19.673Z,13.72
2023-05-12T20:43:47.701Z,13.69
2023-05-12T20:46:15.327Z,13.79
2023-05-12T20:48:42.897Z,13.81
2023-05-12T20:51:11.421Z,13.79
2023-05-12T20:53:40.489Z,13.60
2023-05-12T20:56:08.644Z,13.58
2023-05-12T20:58:36.460Z,13.52
2023-05-12T21:01:04.161Z,13.47
2023-05-12T21:03:31.753Z,13.52
2023-05-12T21:05:59.965Z,13.35
2023-05-12T21:08:27.515Z,13.31
2023-05-12T21:10:56.462Z,13.40
2023-05-12T21:13:24.035Z,13.33
2023-05-12T21:15:51.543Z,13.38
2023-05-12T21:18:19.044Z,13.35
2023-05-12T21:20:46.571Z,13.40
2023-05-12T21:23:14.088Z,13.40
2023-05-12T21:25:41.557Z,13.45
2023-05-12T21:28:10.378Z,13.32
2023-05-12T21:30:37.865Z,13.34
2023-05-12T21:33:05.722Z,13.26
2023-05-12T21:35:33.324Z,13.11
2023-05-12T21:38:00.900Z,13.01
2023-05-12T21:40:29.092Z,13.02
2023-05-12T21:42:56.594Z,13.01
2023-05-12T21:45:26.044Z,13.03
2023-05-12T21:47:53.726Z,13.03
2023-05-12T21:50:21.984Z,12.95
2023-05-12T21:52:50.138Z,12.92
2023-05-12T21:55:17.761Z,12.90
2023-05-12T21:57:45.353Z,12.86
2023-05-12T22:00:14.999Z,12.89
2023-05-12T22:02:44.688Z,12.85
2023-05-12T22:05:12.235Z,12.93
2023-05-12T22:07:39.718Z,12.90
2023-05-12T22:10:07.930Z,12.88
2023-05-12T22:12:35.392Z,12.79
2023-05-12T22:15:02.920Z,12.75
2023-05-12T22:17:30.579Z,12.70
2023-05-12T22:19:59.436Z,12.81
2023-05-12T22:22:27.001Z,12.80
2023-05-12T22:24:54.546Z,12.67
2023-05-12T22:27:22.411Z,12.60
2023-05-12T22:29:50.084Z,12.60
2023-05-12T22:32:17.585Z,12.59
2023-05-12T22:34:45.053Z,12.60
2023-05-12T22:37:13.897Z,12.56
2023-05-12T22:39:41.427Z,12.60
2023-05-12T22:42:09.017Z,12.60
2023-05-12T22:44:36.601Z,12.62
2023-05-12T22:47:04.126Z,12.54
2023-05-12T22:49:31.649Z,12.48
2023-05-12T22:51:59.995Z,12.45
2023-05-12T22:54:28.821Z,12.35
2023-05-12T22:56:56.486Z,12.34
2023-05-12T22:59:24.020Z,12.21
2023-05-12T23:01:51.526Z,12.25
2023-05-12T23:04:19.166Z,12.16
2023-05-12T23:06:46.711Z,12.07
2023-05-12T23:09:14.562Z,12.06
2023-05-12T23:11:43.316Z,12.08
2023-05-12T23:14:11.339Z,12.11
2023-05-12T23:16:38.994Z,12.08
2023-05-12T23:19:06.622Z,12.01
2023-05-12T23:21:34.085Z,12.07
2023-05-12T23:24:01.729Z,12.09
2023-05-12T23:26:29.240Z,12.03
2023-05-12T23:28:58.324Z,12.04
2023-05-12T23:31:25.949Z,12.10
2023-05-12T23:33:53.582Z,12.18
2023-05-12T23:36:22.181Z,12.10
2023-05-12T23:38:53.620Z,12.23
2023-05-12T23:41:21.895Z,12.26
2023-05-12T23:43:49.399Z,12.30
2023-05-12T23:46:18.289Z,12.19
2023-05-12T23:48:45.843Z,12.39
2023-05-12T23:51:13.299Z,12.35
2023-05-12T23:53:40.810Z,12.19
2023-05-12T23:56:09.019Z,12.27
2023-05-12T23:58:36.489Z,12.14
